createdAt,value
2022-11-18T00:01:22.315Z,24.73
2022-11-18T00:03:50.449Z,25.50
2022-11-18T00:06:21.404Z,28.58
2022-11-18T00:08:48.568Z,26.90
2022-11-18T00:11:39.164Z,27.95
2022-11-18T00:14:23.432Z,26.45
2022-11-18T00:17:01.205Z,28.42
2022-11-18T00:19:35.447Z,27.73
2022-11-18T00:22:04.304Z,28.77
2022-11-18T00:24:31.972Z,26.98
2022-11-18T00:26:59.248Z,26.60
2022-11-18T00:29:28.301Z,27.13
2022-11-18T00:31:56.788Z,26.45
2022-11-18T00:34:25.220Z,26.17
2022-11-18T00:36:52.355Z,25.45
2022-11-18T00:39:21.257Z,25.50
2022-11-18T00:42:08.467Z,25.90
2022-11-18T00:44:35.677Z,27.65
2022-11-18T00:47:03.354Z,25.10
2022-11-18T00:49:30.530Z,26.02
2022-11-18T00:51:57.867Z,24.20
2022-11-18T00:54:24.703Z,26.20
2022-11-18T00:56:51.839Z,27.00
2022-11-18T00:59:18.938Z,25.52
2022-11-18T01:01:46.407Z,24.35
2022-11-18T01:04:13.459Z,24.73
2022-11-18T01:06:41.625Z,24.25
2022-11-18T01:09:08.656Z,23.17
2022-11-18T01:11:54.330Z,23.95
2022-11-18T01:14:23.669Z,22.80
2022-11-18T01:16:57.237Z,23.25
2022-11-18T01:19:25.611Z,24.73
2022-11-18T01:21:53.411Z,25.67
2022-11-18T01:24:20.447Z,25.15
2022-11-18T01:26:48.069Z,24.85
2022-11-18T01:29:15.997Z,22.50
2022-11-18T01:32:01.799Z,23.05
2022-11-18T01:34:30.274Z,24.80
2022-11-18T01:36:58.628Z,22.67
2022-11-18T01:39:25.977Z,22.23
2022-11-18T01:41:53.218Z,19.80
2022-11-18T01:44:59.989Z,23.48
2022-11-18T01:47:52.433Z,22.02
2022-11-18T01:50:23.905Z,21.50
2022-11-18T01:52:54.991Z,21.13
2022-11-18T01:55:29.246Z,21.13
2022-11-18T01:58:12.475Z,21.85
2022-11-18T02:00:40.549Z,22.05
2022-11-18T02:03:08.334Z,22.30
2022-11-18T02:05:36.779Z,21.45
2022-11-18T02:08:08.076Z,20.75
2022-11-18T02:10:34.940Z,20.15
2022-11-18T02:13:02.953Z,21.20
2022-11-18T02:15:55.615Z,20.55
2022-11-18T02:18:35.760Z,20.23
2022-11-18T02:21:19.477Z,22.38
2022-11-18T02:24:22.542Z,23.00
2022-11-18T02:27:26.989Z,24.05
2022-11-18T02:30:08.851Z,24.35
2022-11-18T02:32:47.847Z,22.58
2022-11-18T02:35:52.872Z,21.88
2022-11-18T02:38:26.665Z,21.88
2022-11-18T02:41:08.102Z,22.52
2022-11-18T02:43:44.737Z,21.30
2022-11-18T02:46:20.733Z,20.48
2022-11-18T02:48:52.884Z,21.15
2022-11-18T02:51:28.468Z,20.58
2022-11-18T02:54:05.242Z,19.80
2022-11-18T02:56:35.251Z,19.48
2022-11-18T02:59:04.559Z,19.55
2022-11-18T03:01:35.973Z,19.60
2022-11-18T03:04:03.199Z,17.20
2022-11-18T03:06:35.477Z,19.35
2022-11-18T03:09:32.626Z,18.42
2022-11-18T03:12:18.864Z,18.58
2022-11-18T03:14:59.373Z,18.55
2022-11-18T03:18:06.716Z,18.30
2022-11-18T03:20:47.830Z,18.08
2022-11-18T03:23:48.408Z,17.25
2022-11-18T03:26:29.602Z,17.92
2022-11-18T03:29:16.665Z,16.73
2022-11-18T03:31:54.494Z,16.42
2022-11-18T03:34:31.860Z,16.02
2022-11-18T03:37:10.033Z,16.73
2022-11-18T03:39:44.399Z,16.33
2022-11-18T03:42:32.073Z,16.80
2022-11-18T03:45:12.891Z,17.02
2022-11-18T03:47:47.887Z,17.50
2022-11-18T03:50:26.941Z,17.25
2022-11-18T03:52:55.281Z,16.08
2022-11-18T03:55:30.051Z,16.90
2022-11-18T03:58:19.264Z,17.27
2022-11-18T04:00:54.170Z,17.58
2022-11-18T04:03:21.240Z,16.55
2022-11-18T04:05:54.448Z,16.38
2022-11-18T04:08:36.240Z,17.83
2022-11-18T04:11:37.857Z,19.13
2022-11-18T04:14:08.459Z,18.65
2022-11-18T04:16:42.801Z,21.48
2022-11-18T04:19:10.256Z,20.33
2022-11-18T04:21:37.765Z,20.08
2022-11-18T04:24:04.917Z,18.20
2022-11-18T04:26:32.098Z,19.55
2022-11-18T04:28:58.995Z,19.17
2022-11-18T04:31:26.288Z,18.27
2022-11-18T04:33:53.119Z,17.70
2022-11-18T04:36:20.241Z,17.17
2022-11-18T04:38:47.096Z,16.42
2022-11-18T04:41:14.138Z,16.85
2022-11-18T04:43:42.283Z,19.05
2022-11-18T04:46:09.347Z,17.33
2022-11-18T04:48:36.267Z,16.92
2022-11-18T04:51:05.406Z,16.70
2022-11-18T04:53:32.633Z,17.95
2022-11-18T04:56:08.816Z,17.33
2022-11-18T04:58:35.608Z,16.38
2022-11-18T05:01:02.784Z,18.08
2022-11-18T05:03:29.673Z,16.45
2022-11-18T05:05:56.801Z,17.30
2022-11-18T05:08:23.680Z,16.13
2022-11-18T05:10:50.831Z,16.23
2022-11-18T05:13:17.690Z,17.02
2022-11-18T05:15:44.772Z,16.35
2022-11-18T05:18:11.779Z,16.00
2022-11-18T05:20:41.549Z,16.00
2022-11-18T05:23:08.649Z,16.27
2022-11-18T05:25:36.259Z,17.27
2022-11-18T05:28:03.237Z,15.68
2022-11-18T05:30:30.384Z,17.40
2022-11-18T05:32:57.173Z,16.85
2022-11-18T05:35:24.253Z,16.75
2022-11-18T05:37:51.178Z,17.85
2022-11-18T05:40:19.317Z,16.63
2022-11-18T05:43:04.910Z,18.63
2022-11-18T05:45:32.023Z,16.90
2022-11-18T05:48:04.073Z,17.70
2022-11-18T05:50:34.664Z,16.33
2022-11-18T05:53:02.721Z,16.52
2022-11-18T05:55:42.267Z,16.50
2022-11-18T05:58:09.134Z,16.85
2022-11-18T06:00:37.056Z,16.17
2022-11-18T06:03:16.167Z,18.30
2022-11-18T06:05:43.546Z,17.48
2022-11-18T06:08:14.610Z,17.27
2022-11-18T06:10:44.593Z,17.17
2022-11-18T06:13:23.203Z,16.33
2022-11-18T06:15:50.476Z,17.80
2022-11-18T06:18:26.250Z,17.00
2022-11-18T06:21:05.557Z,14.75
2022-11-18T06:23:39.655Z,15.95
2022-11-18T06:26:09.344Z,14.90
2022-11-18T06:28:37.035Z,14.73
2022-11-18T06:31:04.208Z,15.05
2022-11-18T06:33:31.052Z,17.13
2022-11-18T06:35:58.299Z,15.38
2022-11-18T06:38:25.375Z,15.07
2022-11-18T06:40:52.568Z,15.80
2022-11-18T06:43:37.877Z,15.18
2022-11-18T06:46:27.471Z,14.50
2022-11-18T06:48:54.467Z,13.48
2022-11-18T06:51:21.735Z,14.15
2022-11-18T06:53:48.703Z,14.07
2022-11-18T06:56:18.472Z,15.27
2022-11-18T06:58:45.895Z,14.70
2022-11-18T07:01:28.424Z,15.15
2022-11-18T07:03:59.311Z,14.93
2022-11-18T07:06:30.412Z,15.73
2022-11-18T07:08:59.468Z,17.63
2022-11-18T07:11:27.295Z,14.75
2022-11-18T07:13:54.597Z,13.90
2022-11-18T07:16:25.882Z,14.90
2022-11-18T07:18:54.659Z,15.90
2022-11-18T07:21:28.734Z,14.68
2022-11-18T07:23:56.888Z,15.27
2022-11-18T07:26:24.786Z,14.95
2022-11-18T07:28:52.032Z,14.85
2022-11-18T07:31:21.333Z,13.48
2022-11-18T07:33:49.350Z,14.02
2022-11-18T07:36:20.238Z,13.95
2022-11-18T07:38:47.868Z,15.23
2022-11-18T07:41:19.458Z,13.23
2022-11-18T07:43:48.329Z,13.93
2022-11-18T07:46:31.815Z,13.32
2022-11-18T07:49:01.549Z,14.55
2022-11-18T07:51:33.266Z,14.35
2022-11-18T07:54:01.157Z,13.38
2022-11-18T07:56:28.392Z,12.65
2022-11-18T07:58:56.347Z,14.27
2022-11-18T08:01:31.016Z,12.45
2022-11-18T08:04:05.669Z,12.73
2022-11-18T08:06:34.921Z,13.32
2022-11-18T08:09:02.654Z,12.07
2022-11-18T08:11:30.019Z,12.02
2022-11-18T08:13:56.947Z,12.13
2022-11-18T08:16:26.107Z,10.63
2022-11-18T08:18:53.987Z,11.77
2022-11-18T08:21:23.250Z,10.63
2022-11-18T08:23:56.312Z,11.05
2022-11-18T08:26:25.184Z,11.95
2022-11-18T08:28:53.214Z,11.05
2022-11-18T08:31:25.409Z,11.57
2022-11-18T08:34:06.332Z,11.18
2022-11-18T08:36:38.802Z,12.55
2022-11-18T08:39:09.240Z,13.30
2022-11-18T08:41:40.574Z,13.32
2022-11-18T08:44:11.749Z,14.05
2022-11-18T08:46:39.236Z,14.18
2022-11-18T08:49:06.551Z,12.48
2022-11-18T08:51:33.783Z,10.68
2022-11-18T08:54:01.111Z,15.05
2022-11-18T08:56:28.286Z,13.23
2022-11-18T08:58:56.551Z,12.85
2022-11-18T09:01:23.917Z,15.32
2022-11-18T09:03:51.056Z,16.42
2022-11-18T09:06:22.778Z,22.95
2022-11-18T09:08:49.831Z,17.88
2022-11-18T09:11:22.530Z,17.27
2022-11-18T09:16:43.818Z,15.57
2022-11-18T09:21:58.187Z,16.33
2022-11-18T09:24:25.018Z,17.15
2022-11-18T09:26:53.779Z,15.50
2022-11-18T09:29:25.475Z,13.98
2022-11-18T09:31:54.504Z,13.75
2022-11-18T09:34:22.644Z,13.07
2022-11-18T09:36:50.617Z,13.38
2022-11-18T09:39:17.639Z,13.68
2022-11-18T09:41:45.279Z,13.27
2022-11-18T09:44:30.954Z,13.38
2022-11-18T09:47:28.477Z,14.55
2022-11-18T09:50:47.866Z,14.52
2022-11-18T09:53:26.202Z,14.25
2022-11-18T09:55:55.501Z,14.35
2022-11-18T09:58:35.632Z,14.07
2022-11-18T10:01:12.619Z,15.93
2022-11-18T10:03:41.252Z,15.15
2022-11-18T10:06:23.872Z,16.88
2022-11-18T10:09:28.308Z,14.40
2022-11-18T10:12:52.271Z,16.55
2022-11-18T10:15:56.315Z,17.33
2022-11-18T10:19:01.583Z,16.40
2022-11-18T10:22:03.495Z,19.05
2022-11-18T10:25:00.888Z,17.48
2022-11-18T10:27:40.719Z,15.25
2022-11-18T10:30:19.993Z,15.98
2022-11-18T10:33:19.749Z,14.80
2022-11-18T10:35:46.688Z,13.90
2022-11-18T10:38:13.810Z,14.70
2022-11-18T10:41:01.256Z,15.80
2022-11-18T10:43:56.317Z,15.77
2022-11-18T10:46:31.006Z,16.48
2022-11-18T10:51:47.257Z,16.00
2022-11-18T10:54:23.261Z,17.48
2022-11-18T10:57:11.049Z,17.23
2022-11-18T10:59:44.461Z,16.77
2022-11-18T11:02:35.096Z,15.55
2022-11-18T11:05:16.664Z,17.83
2022-11-18T11:07:43.905Z,15.05
2022-11-18T11:10:12.774Z,14.70
2022-11-18T11:12:48.907Z,15.00
2022-11-18T11:15:52.504Z,14.65
2022-11-18T11:18:44.202Z,15.80
2022-11-18T11:21:17.569Z,15.05
2022-11-18T11:23:46.235Z,15.07
2022-11-18T11:29:16.142Z,15.93
2022-11-18T11:32:10.211Z,16.88
2022-11-18T11:34:57.959Z,15.02
2022-11-18T11:37:58.997Z,15.15
2022-11-18T11:40:39.834Z,15.32
2022-11-18T11:43:43.708Z,15.10
2022-11-18T11:46:41.345Z,14.93
2022-11-18T11:49:54.246Z,16.02
2022-11-18T11:52:53.520Z,14.95
2022-11-18T11:56:04.524Z,16.30
2022-11-18T11:59:36.386Z,15.68
2022-11-18T12:02:47.754Z,15.77
2022-11-18T12:05:34.316Z,15.00
2022-11-18T12:08:14.364Z,15.70
2022-11-18T12:11:29.490Z,16.02
2022-11-18T12:14:10.619Z,15.32
2022-11-18T12:17:01.508Z,15.02
2022-11-18T12:19:28.792Z,15.98
2022-11-18T12:22:00.530Z,14.38
2022-11-18T12:24:40.555Z,13.65
2022-11-18T12:27:10.256Z,15.05
2022-11-18T12:29:49.597Z,12.63
2022-11-18T12:32:46.975Z,12.48
2022-11-18T12:35:14.129Z,12.70
2022-11-18T12:37:46.055Z,13.43
2022-11-18T12:40:34.413Z,11.77
2022-11-18T12:43:21.291Z,11.10
2022-11-18T12:45:53.908Z,10.23
2022-11-18T12:48:27.363Z,10.65
2022-11-18T12:51:00.976Z,10.07
2022-11-18T12:53:41.309Z,10.65
2022-11-18T12:56:33.560Z,11.00
2022-11-18T12:59:02.630Z,10.50
2022-11-18T13:01:35.482Z,10.57
2022-11-18T13:04:16.342Z,10.73
2022-11-18T13:06:44.930Z,10.40
2022-11-18T13:09:21.552Z,11.52
2022-11-18T13:11:57.536Z,9.23
2022-11-18T13:14:50.492Z,9.98
2022-11-18T13:17:52.530Z,10.45
2022-11-18T13:20:22.981Z,9.32
2022-11-18T13:23:15.531Z,9.63
2022-11-18T13:25:45.824Z,9.95
2022-11-18T13:28:45.308Z,11.77
2022-11-18T13:31:52.840Z,9.60
2022-11-18T13:34:23.784Z,10.32
2022-11-18T13:36:54.084Z,9.32
2022-11-18T13:39:32.429Z,9.48
2022-11-18T13:42:00.967Z,11.18
2022-11-18T13:44:32.195Z,9.95
2022-11-18T13:47:36.703Z,11.35
2022-11-18T13:50:22.534Z,10.57
2022-11-18T13:53:07.293Z,9.55
2022-11-18T13:55:52.515Z,11.73
2022-11-18T14:01:03.705Z,11.18
2022-11-18T14:03:44.366Z,10.13
2022-11-18T14:06:11.685Z,10.25
2022-11-18T14:08:40.013Z,10.60
2022-11-18T14:11:07.652Z,10.63
2022-11-18T14:13:51.905Z,10.70
2022-11-18T14:16:18.884Z,12.00
2022-11-18T14:18:49.513Z,11.25
2022-11-18T14:21:29.309Z,11.35
2022-11-18T14:23:57.352Z,11.48
2022-11-18T14:26:31.300Z,11.15
2022-11-18T14:29:02.997Z,10.45
2022-11-18T14:31:32.297Z,9.27
2022-11-18T14:34:26.982Z,9.95
2022-11-18T14:36:56.059Z,10.05
2022-11-18T14:39:31.992Z,10.90
2022-11-18T14:41:59.984Z,11.40
2022-11-18T14:44:28.589Z,12.50
2022-11-18T14:47:00.705Z,11.68
2022-11-18T14:49:31.658Z,11.73
2022-11-18T14:52:02.498Z,11.70
2022-11-18T14:54:30.714Z,12.32
2022-11-18T14:57:02.666Z,13.35
2022-11-18T14:59:30.437Z,13.90
2022-11-18T15:01:58.833Z,13.52
2022-11-18T15:04:26.523Z,12.43
2022-11-18T15:06:53.857Z,11.82
2022-11-18T15:09:21.881Z,11.55
2022-11-18T15:11:48.751Z,11.25
2022-11-18T15:14:16.265Z,24.50
2022-11-18T15:16:43.401Z,13.38
2022-11-18T15:19:16.080Z,11.85
2022-11-18T15:21:45.372Z,11.00
2022-11-18T15:24:12.898Z,12.38
2022-11-18T15:26:44.342Z,15.20
2022-11-18T15:29:24.521Z,12.40
2022-11-18T15:31:52.350Z,11.82
2022-11-18T15:34:21.188Z,12.10
2022-11-18T15:36:49.250Z,12.73
2022-11-18T15:39:16.459Z,12.00
2022-11-18T15:41:44.423Z,12.70
2022-11-18T15:44:12.267Z,11.73
2022-11-18T15:46:39.699Z,11.18
2022-11-18T15:49:09.751Z,12.35
2022-11-18T15:51:37.021Z,12.07
2022-11-18T15:54:04.184Z,10.93
2022-11-18T15:56:32.877Z,11.52
2022-11-18T15:59:11.379Z,12.10
2022-11-18T16:01:41.883Z,12.00
2022-11-18T16:04:12.062Z,10.85
2022-11-18T16:06:39.737Z,10.90
2022-11-18T16:09:07.197Z,11.50
2022-11-18T16:11:52.827Z,11.00
2022-11-18T16:14:23.009Z,11.48
2022-11-18T16:16:53.127Z,12.07
2022-11-18T16:19:24.701Z,11.45
2022-11-18T16:21:56.997Z,11.60
2022-11-18T16:24:29.467Z,11.27
2022-11-18T16:26:57.102Z,10.35
2022-11-18T16:29:24.769Z,10.30
2022-11-18T16:31:52.969Z,14.15
2022-11-18T16:34:25.480Z,12.45
2022-11-18T16:36:59.756Z,13.35
2022-11-18T16:39:28.728Z,14.50
2022-11-18T16:42:06.821Z,15.10
2022-11-18T16:44:35.282Z,14.75
2022-11-18T16:47:02.320Z,13.35
2022-11-18T16:49:29.475Z,13.85
2022-11-18T16:51:57.765Z,14.57
2022-11-18T16:54:31.951Z,15.20
2022-11-18T16:57:00.011Z,19.45
2022-11-18T16:59:30.662Z,16.70
2022-11-18T17:02:00.141Z,18.33
2022-11-18T17:04:30.115Z,18.15
2022-11-18T17:06:59.848Z,19.60
2022-11-18T17:09:27.959Z,19.73
2022-11-18T17:11:56.003Z,19.73
2022-11-18T17:14:23.682Z,18.48
2022-11-18T17:16:52.423Z,19.33
2022-11-18T17:19:22.595Z,21.15
2022-11-18T17:21:51.844Z,19.98
2022-11-18T17:24:22.666Z,20.23
2022-11-18T17:26:52.089Z,22.00
2022-11-18T17:29:20.165Z,19.38
2022-11-18T17:31:47.285Z,20.15
2022-11-18T17:34:15.979Z,20.42
2022-11-18T17:36:43.616Z,22.90
2022-11-18T17:39:12.460Z,18.98
2022-11-18T17:41:58.330Z,19.83
2022-11-18T17:44:27.810Z,21.38
2022-11-18T17:46:54.882Z,19.17
2022-11-18T17:49:22.503Z,19.58
2022-11-18T17:51:51.324Z,20.00
2022-11-18T17:54:19.617Z,19.25
2022-11-18T17:56:47.401Z,20.77
2022-11-18T17:59:15.913Z,21.50
2022-11-18T18:01:44.334Z,22.20
2022-11-18T18:04:14.631Z,21.70
2022-11-18T18:06:41.566Z,21.58
2022-11-18T18:09:08.701Z,22.17
2022-11-18T18:11:35.565Z,20.90
2022-11-18T18:14:14.681Z,21.15
2022-11-18T18:16:48.152Z,21.30
2022-11-18T18:19:19.670Z,23.92
2022-11-18T18:21:47.432Z,19.92
2022-11-18T18:24:18.343Z,21.80
2022-11-18T18:26:45.791Z,21.38
2022-11-18T18:29:13.504Z,23.40
2022-11-18T18:31:41.253Z,24.15
2022-11-18T18:34:08.469Z,23.33
2022-11-18T18:36:35.635Z,21.92
2022-11-18T18:39:03.711Z,22.10
2022-11-18T18:41:32.414Z,23.45
2022-11-18T18:44:00.441Z,22.55
2022-11-18T18:46:29.004Z,23.70
2022-11-18T18:49:05.060Z,24.02
2022-11-18T18:51:40.328Z,23.75
2022-11-18T18:54:12.254Z,22.38
2022-11-18T18:56:40.273Z,24.30
2022-11-18T18:59:07.937Z,26.27
2022-11-18T19:01:35.610Z,24.33
2022-11-18T19:04:06.556Z,24.73
2022-11-18T19:06:59.366Z,22.35
2022-11-18T19:09:26.203Z,22.95
2022-11-18T19:12:12.732Z,21.95
2022-11-18T19:14:40.010Z,22.73
2022-11-18T19:17:12.632Z,24.10
2022-11-18T19:20:00.610Z,25.17
2022-11-18T19:22:31.858Z,23.67
2022-11-18T19:25:00.418Z,24.25
2022-11-18T19:27:28.014Z,23.70
2022-11-18T19:29:55.200Z,25.95
2022-11-18T19:32:22.313Z,27.17
2022-11-18T19:34:49.432Z,24.63
2022-11-18T19:37:16.280Z,27.13
2022-11-18T19:39:43.545Z,28.35
2022-11-18T19:42:11.029Z,28.60
2022-11-18T19:44:39.268Z,28.30
2022-11-18T19:47:06.314Z,28.75
2022-11-18T19:49:33.503Z,29.67
2022-11-18T19:52:00.372Z,28.20
2022-11-18T19:54:27.563Z,29.02
2022-11-18T19:56:54.415Z,29.30
2022-11-18T19:59:21.809Z,27.52
2022-11-18T20:01:49.033Z,29.05
2022-11-18T20:04:16.304Z,28.85
2022-11-18T20:06:43.200Z,27.75
2022-11-18T20:09:11.701Z,28.90
2022-11-18T20:11:38.740Z,26.60
2022-11-18T20:14:08.286Z,25.55
2022-11-18T20:16:37.398Z,26.35
2022-11-18T20:19:10.810Z,27.15
2022-11-18T20:21:43.415Z,21.15
2022-11-18T20:24:16.793Z,18.50
2022-11-18T20:26:44.515Z,19.00
2022-11-18T20:29:12.491Z,19.20
2022-11-18T20:31:39.602Z,17.23
2022-11-18T20:34:07.100Z,19.15
2022-11-18T20:36:37.109Z,18.27
2022-11-18T20:39:16.344Z,17.98
2022-11-18T20:42:04.634Z,19.55
2022-11-18T20:44:31.873Z,18.48
2022-11-18T20:46:58.819Z,18.42
2022-11-18T20:49:26.108Z,16.90
2022-11-18T20:51:53.033Z,18.33
2022-11-18T20:54:20.225Z,19.83
2022-11-18T20:56:47.089Z,18.73
2022-11-18T20:59:14.212Z,19.67
2022-11-18T21:01:41.324Z,19.17
2022-11-18T21:04:11.545Z,19.15
2022-11-18T21:06:38.640Z,19.02
2022-11-18T21:09:07.704Z,17.27
2022-11-18T21:11:36.447Z,17.13
2022-11-18T21:14:25.571Z,18.10
2022-11-18T21:17:00.595Z,15.93
2022-11-18T21:19:29.182Z,16.42
2022-11-18T21:21:57.021Z,16.60
2022-11-18T21:24:33.008Z,16.98
2022-11-18T21:27:02.163Z,15.60
2022-11-18T21:29:32.423Z,15.65
2022-11-18T21:32:01.604Z,15.10
2022-11-18T21:34:30.163Z,17.02
2022-11-18T21:36:57.328Z,15.40
2022-11-18T21:39:25.303Z,15.20
2022-11-18T21:41:56.406Z,14.27
2022-11-18T21:44:25.836Z,15.80
2022-11-18T21:46:52.750Z,13.82
2022-11-18T21:49:20.252Z,15.43
2022-11-18T21:51:47.325Z,15.23
2022-11-18T21:54:16.081Z,14.30
2022-11-18T21:56:43.160Z,13.93
2022-11-18T21:59:10.357Z,12.98
2022-11-18T22:01:37.317Z,18.80
2022-11-18T22:04:05.698Z,15.60
2022-11-18T22:06:34.596Z,15.15
2022-11-18T22:09:04.434Z,14.50
2022-11-18T22:11:31.239Z,13.23
2022-11-18T22:13:58.637Z,14.80
2022-11-18T22:16:28.628Z,12.93
2022-11-18T22:19:01.427Z,13.13
2022-11-18T22:21:32.293Z,11.45
2022-11-18T22:24:01.142Z,10.18
2022-11-18T22:26:28.955Z,10.35
2022-11-18T22:28:58.411Z,10.70
2022-11-18T22:31:28.322Z,10.43
2022-11-18T22:33:56.920Z,10.05
2022-11-18T22:36:27.541Z,9.73
2022-11-18T22:38:55.808Z,10.25
2022-11-18T22:41:45.325Z,10.07
2022-11-18T22:44:15.986Z,10.13
2022-11-18T22:46:45.396Z,10.02
2022-11-18T22:49:13.879Z,10.00
2022-11-18T22:51:41.266Z,9.85
2022-11-18T22:54:37.311Z,11.32
2022-11-18T22:56:56.906Z,10.40
2022-11-18T22:59:24.805Z,8.35
2022-11-18T23:01:52.834Z,10.07
2022-11-18T23:04:20.170Z,10.05
2022-11-18T23:06:48.818Z,8.68
2022-11-18T23:09:16.016Z,8.93
2022-11-18T23:12:21.282Z,8.20
2022-11-18T23:14:48.426Z,7.95
2022-11-18T23:17:16.064Z,9.15
2022-11-18T23:19:43.999Z,8.25
2022-11-18T23:22:12.911Z,9.30
2022-11-18T23:24:40.148Z,8.95
2022-11-18T23:27:07.433Z,8.48
2022-11-18T23:29:34.606Z,8.32
2022-11-18T23:32:01.478Z,8.90
2022-11-18T23:34:28.709Z,7.57
2022-11-18T23:36:55.749Z,7.40
2022-11-18T23:39:22.906Z,7.72
2022-11-18T23:41:49.813Z,8.52
2022-11-18T23:44:16.896Z,8.18
2022-11-18T23:46:43.757Z,7.80
2022-11-18T23:49:10.909Z,7.32
2022-11-18T23:51:37.751Z,9.13
2022-11-18T23:54:05.175Z,8.50
2022-11-18T23:56:37.447Z,7.95
2022-11-18T23:59:05.529Z,8.23
